Time;durP1;ratioP1;P1;durP2;ratioP2;P2;SDS_P1;SDS_P2;PMS_P1;PMS_P2;Temp;Humidity;BMP_temperature;BMP_pressure;BME280_temperature;BME280_humidity;BME280_pressure;Samples;Min_cycle;Max_cycle;Signal;HPM_P1;HPM_P2
2023/07/28 00:00:52;;;;;;;81.32;9.80;;;;;;;;;;5001743;28;20042;-51
2023/07/28 00:03:18;;;;;;;71.43;9.70;;;;;;;;;;5003940;28;20253;-53
2023/07/28 00:05:43;;;;;;;82.23;10.27;;;;;;;;;;5003063;28;22103;-51
2023/07/28 00:08:08;;;;;;;75.50;9.70;;;;;;;;;;5004668;28;20410;-51
2023/07/28 00:10:33;;;;;;;108.05;11.95;;;;;;;;;;5002809;28;20825;-51
2023/07/28 00:12:59;;;;;;;75.33;9.93;;;;;;;;;;5002872;28;20029;-51
2023/07/28 00:15:24;;;;;;;74.72;9.68;;;;;;;;;;5002715;28;20321;-50
2023/07/28 00:17:49;;;;;;;68.87;9.67;;;;;;;;;;5002294;28;20025;-50
2023/07/28 00:20:14;;;;;;;78.38;9.70;;;;;;;;;;5003858;28;20261;-50
2023/07/28 00:22:40;;;;;;;128.98;14.35;;;;;;;;;;5005469;28;20716;-51
2023/07/28 00:25:05;;;;;;;76.20;9.47;;;;;;;;;;5003877;28;20049;-51
2023/07/28 00:27:30;;;;;;;118.10;12.57;;;;;;;;;;5001390;28;20690;-51
2023/07/28 00:29:56;;;;;;;74.27;9.87;;;;;;;;;;5005655;28;20623;-53
2023/07/28 00:32:21;;;;;;;80.83;9.77;;;;;;;;;;5002030;28;20292;-52
2023/07/28 00:34:46;;;;;;;80.60;10.45;;;;;;;;;;5002557;28;20310;-51
2023/07/28 00:37:12;;;;;;;73.25;10.48;;;;;;;;;;5003935;28;20068;-50
2023/07/28 00:39:37;;;;;;;114.40;12.63;;;;;;;;;;5001732;28;20022;-53
2023/07/28 00:42:02;;;;;;;97.00;10.87;;;;;;;;;;5001973;28;20358;-52
2023/07/28 00:44:27;;;;;;;75.47;9.68;;;;;;;;;;5001292;28;20260;-51
2023/07/28 00:46:53;;;;;;;61.13;8.67;;;;;;;;;;5002766;28;20298;-51
2023/07/28 00:49:18;;;;;;;74.88;9.55;;;;;;;;;;5003246;28;20267;-52
2023/07/28 00:51:43;;;;;;;125.72;13.23;;;;;;;;;;5002508;28;20400;-50
2023/07/28 00:54:09;;;;;;;81.05;9.75;;;;;;;;;;5003094;28;20040;-51
2023/07/28 00:56:34;;;;;;;126.35;14.18;;;;;;;;;;5000259;28;20131;-52
2023/07/28 00:58:59;;;;;;;82.17;10.33;;;;;;;;;;5001951;28;20025;-52
2023/07/28 01:01:25;;;;;;;71.10;9.00;;;;;;;;;;5003360;28;20284;-54
2023/07/28 01:03:50;;;;;;;69.63;9.40;;;;;;;;;;5000930;28;20256;-54
2023/07/28 01:06:22;;;;;;;78.55;10.00;;;;;;;;;;5002078;28;20443;-52
2023/07/28 01:09:08;;;;;;;128.55;13.35;;;;;;;;;;5001990;28;20099;-52
2023/07/28 01:11:34;;;;;;;112.38;12.70;;;;;;;;;;5000599;28;20042;-53
2023/07/28 01:13:59;;;;;;;77.97;9.60;;;;;;;;;;5003180;28;20434;-51
2023/07/28 01:16:24;;;;;;;78.95;10.60;;;;;;;;;;5008271;28;20295;-52
2023/07/28 01:18:49;;;;;;;93.37;9.53;;;;;;;;;;5000727;28;20048;-51
2023/07/28 01:21:23;;;;;;;57.47;8.68;;;;;;;;;;5004328;28;20307;-52
2023/07/28 01:23:58;;;;;;;85.97;10.48;;;;;;;;;;5000802;28;21571;-52
2023/07/28 01:26:30;;;;;;;66.38;9.20;;;;;;;;;;5003379;28;20034;-53
2023/07/28 01:28:55;;;;;;;92.50;11.27;;;;;;;;;;5002424;28;20048;-52
2023/07/28 01:31:21;;;;;;;66.78;8.13;;;;;;;;;;5004084;28;20030;-51
2023/07/28 01:33:46;;;;;;;133.93;13.97;;;;;;;;;;5002361;28;20087;-51
2023/07/28 01:36:11;;;;;;;78.60;9.30;;;;;;;;;;5002237;28;20284;-53
2023/07/28 01:38:36;;;;;;;127.57;13.53;;;;;;;;;;5003542;28;20615;-54
2023/07/28 01:41:01;;;;;;;76.33;9.07;;;;;;;;;;5001935;28;20295;-52
2023/07/28 01:43:27;;;;;;;70.07;9.30;;;;;;;;;;5001976;28;20253;-53
2023/07/28 01:45:52;;;;;;;70.40;9.83;;;;;;;;;;5001091;28;20284;-52
2023/07/28 01:48:17;;;;;;;74.50;9.48;;;;;;;;;;5002909;28;20025;-50
2023/07/28 01:50:43;;;;;;;117.85;13.00;;;;;;;;;;5002776;28;20026;-51
2023/07/28 01:53:08;;;;;;;86.30;9.73;;;;;;;;;;5002082;28;20403;-51
2023/07/28 01:55:34;;;;;;;85.43;11.77;;;;;;;;;;5001779;28;21667;-51
2023/07/28 01:58:00;;;;;;;78.85;9.35;;;;;;;;;;5002547;28;20022;-52
2023/07/28 02:00:26;;;;;;;66.63;9.52;;;;;;;;;;5002296;28;20096;-52
2023/07/28 02:02:51;;;;;;;70.18;10.02;;;;;;;;;;5001907;28;20029;-51
2023/07/28 02:05:17;;;;;;;73.05;9.95;;;;;;;;;;5003435;28;20052;-51
2023/07/28 02:07:42;;;;;;;117.57;13.40;;;;;;;;;;5004002;28;20143;-51
2023/07/28 02:10:07;;;;;;;86.10;11.25;;;;;;;;;;5002743;28;20022;-53
2023/07/28 02:12:33;;;;;;;86.43;10.20;;;;;;;;;;5001379;28;20018;-51
2023/07/28 02:14:58;;;;;;;86.27;10.00;;;;;;;;;;5002837;28;20250;-51
2023/07/28 02:17:23;;;;;;;83.50;10.97;;;;;;;;;;5005039;28;21012;-53
2023/07/28 02:19:48;;;;;;;132.38;14.57;;;;;;;;;;5004459;28;20369;-51
2023/07/28 02:22:14;;;;;;;76.28;10.27;;;;;;;;;;5005320;28;20045;-51
2023/07/28 02:24:39;;;;;;;128.23;13.30;;;;;;;;;;5002560;28;20546;-51
2023/07/28 02:27:04;;;;;;;79.80;9.80;;;;;;;;;;5006059;28;20033;-51
2023/07/28 02:29:30;;;;;;;87.50;10.38;;;;;;;;;;5004718;28;20010;-53
2023/07/28 02:31:55;;;;;;;60.57;9.40;;;;;;;;;;5003318;28;20253;-53
2023/07/28 02:34:20;;;;;;;75.77;9.83;;;;;;;;;;5005752;28;20271;-51
2023/07/28 02:36:45;;;;;;;119.25;12.40;;;;;;;;;;5004195;28;20650;-53
2023/07/28 02:39:10;;;;;;;71.93;9.83;;;;;;;;;;5007704;28;20025;-51
2023/07/28 02:41:36;;;;;;;86.43;11.20;;;;;;;;;;5004093;28;20316;-52
2023/07/28 02:44:01;;;;;;;89.77;11.50;;;;;;;;;;5007309;28;20097;-51
2023/07/28 02:46:26;;;;;;;57.77;9.13;;;;;;;;;;5006249;28;20371;-54
2023/07/28 02:48:51;;;;;;;124.57;13.67;;;;;;;;;;5004553;28;20272;-52
2023/07/28 02:51:17;;;;;;;79.13;11.07;;;;;;;;;;5004288;28;20416;-51
2023/07/28 02:53:42;;;;;;;132.93;14.45;;;;;;;;;;5003458;28;21010;-51
2023/07/28 02:56:07;;;;;;;79.57;11.05;;;;;;;;;;5004986;28;20034;-52
2023/07/28 02:58:32;;;;;;;90.38;10.57;;;;;;;;;;5004878;28;20096;-51
2023/07/28 03:00:58;;;;;;;68.97;9.95;;;;;;;;;;5003415;28;20203;-52
2023/07/28 03:03:23;;;;;;;76.50;10.00;;;;;;;;;;5007539;28;20108;-51
2023/07/28 03:05:51;;;;;;;119.10;13.53;;;;;;;;;;5004975;28;20032;-51
2023/07/28 03:08:16;;;;;;;71.65;10.43;;;;;;;;;;5005789;28;20769;-54
2023/07/28 03:10:41;;;;;;;116.07;11.93;;;;;;;;;;5003214;28;20043;-51
2023/07/28 03:13:07;;;;;;;95.65;11.80;;;;;;;;;;5005514;28;20021;-51
2023/07/28 03:15:33;;;;;;;73.85;10.43;;;;;;;;;;5003116;28;20026;-51
2023/07/28 03:17:58;;;;;;;77.43;10.60;;;;;;;;;;5002847;28;20036;-54
2023/07/28 03:20:23;;;;;;;85.03;9.93;;;;;;;;;;5001400;28;20071;-51
2023/07/28 03:22:48;;;;;;;126.45;13.52;;;;;;;;;;5003286;28;20029;-52
2023/07/28 03:25:14;;;;;;;70.15;9.65;;;;;;;;;;5004691;28;20017;-51
2023/07/28 03:27:39;;;;;;;85.10;10.63;;;;;;;;;;5003483;28;20021;-52
2023/07/28 03:30:06;;;;;;;79.57;10.37;;;;;;;;;;5004020;28;20317;-51
2023/07/28 03:32:32;;;;;;;80.10;10.07;;;;;;;;;;5003328;28;20314;-53
2023/07/28 03:34:57;;;;;;;82.60;10.75;;;;;;;;;;5001925;28;20153;-51
2023/07/28 03:37:22;;;;;;;71.10;10.17;;;;;;;;;;5002455;28;20068;-51
2023/07/28 03:39:48;;;;;;;123.85;13.57;;;;;;;;;;5005007;28;20276;-51
2023/07/28 03:42:14;;;;;;;92.30;11.32;;;;;;;;;;5004746;28;20038;-51
2023/07/28 03:44:41;;;;;;;92.97;11.48;;;;;;;;;;5001802;28;20558;-51
2023/07/28 03:47:07;;;;;;;81.90;10.73;;;;;;;;;;5003146;28;20507;-51
2023/07/28 03:49:32;;;;;;;92.00;12.07;;;;;;;;;;5002397;28;20033;-51
2023/07/28 03:51:58;;;;;;;73.88;10.65;;;;;;;;;;5000651;28;20334;-53
2023/07/28 03:54:23;;;;;;;77.18;11.25;;;;;;;;;;5004252;28;20030;-51
2023/07/28 03:56:48;;;;;;;134.10;15.47;;;;;;;;;;5002632;28;20437;-52
2023/07/28 03:59:13;;;;;;;76.23;10.60;;;;;;;;;;5004752;28;20267;-54
2023/07/28 04:01:38;;;;;;;87.93;11.50;;;;;;;;;;5003125;28;20371;-51
2023/07/28 04:04:04;;;;;;;82.10;10.63;;;;;;;;;;5004991;28;20040;-51
2023/07/28 04:06:42;;;;;;;87.00;12.10;;;;;;;;;;5004587;28;20034;-54
2023/07/28 04:09:08;;;;;;;88.22;12.15;;;;;;;;;;5003946;28;20182;-51
2023/07/28 04:11:33;;;;;;;86.93;11.55;;;;;;;;;;5006223;28;20033;-51
2023/07/28 04:13:58;;;;;;;88.40;12.05;;;;;;;;;;5009550;28;21954;-51
2023/07/28 04:16:24;;;;;;;72.70;11.18;;;;;;;;;;5003431;28;20765;-51
2023/07/28 04:18:49;;;;;;;130.27;14.90;;;;;;;;;;5002806;28;20108;-52
2023/07/28 04:21:14;;;;;;;87.57;12.20;;;;;;;;;;5004897;28;20423;-53
2023/07/28 04:23:40;;;;;;;96.63;11.77;;;;;;;;;;5003696;28;20295;-51
2023/07/28 04:26:06;;;;;;;92.32;13.13;;;;;;;;;;5004701;28;20367;-51
2023/07/28 04:28:31;;;;;;;87.43;12.23;;;;;;;;;;5003380;28;20010;-51
2023/07/28 04:30:56;;;;;;;124.68;14.85;;;;;;;;;;5001714;28;20092;-51
2023/07/28 04:33:21;;;;;;;97.73;12.53;;;;;;;;;;5003642;28;20060;-53
2023/07/28 04:35:47;;;;;;;123.27;14.77;;;;;;;;;;5001438;28;20296;-51
2023/07/28 04:38:12;;;;;;;100.63;13.13;;;;;;;;;;5002725;28;20369;-52
2023/07/28 04:40:37;;;;;;;95.37;13.90;;;;;;;;;;5003417;28;20334;-51
2023/07/28 04:43:02;;;;;;;80.23;13.40;;;;;;;;;;5001809;28;20308;-51
2023/07/28 04:45:28;;;;;;;85.03;13.60;;;;;;;;;;5006798;28;20297;-51
2023/07/28 04:47:53;;;;;;;121.57;15.95;;;;;;;;;;5002858;28;20785;-53
2023/07/28 04:50:18;;;;;;;78.88;11.23;;;;;;;;;;5002664;28;20026;-51
2023/07/28 04:52:43;;;;;;;88.77;11.50;;;;;;;;;;5002846;28;20071;-53
2023/07/28 04:55:08;;;;;;;93.60;11.88;;;;;;;;;;5003864;28;20269;-51
2023/07/28 04:57:34;;;;;;;70.93;10.20;;;;;;;;;;5002660;28;20071;-53
2023/07/28 04:59:59;;;;;;;125.40;13.27;;;;;;;;;;5001439;28;21189;-54
2023/07/28 05:02:24;;;;;;;99.07;11.87;;;;;;;;;;5003832;28;20380;-52
2023/07/28 05:04:49;;;;;;;118.47;13.33;;;;;;;;;;5002824;28;20375;-53
2023/07/28 05:07:15;;;;;;;76.33;11.03;;;;;;;;;;5002154;28;20269;-51
2023/07/28 05:09:40;;;;;;;95.90;11.98;;;;;;;;;;5002843;28;20264;-51
2023/07/28 05:12:05;;;;;;;101.35;13.15;;;;;;;;;;4998858;28;20133;-51
2023/07/28 05:14:31;;;;;;;91.65;12.77;;;;;;;;;;5002288;28;20034;-54
2023/07/28 05:16:56;;;;;;;144.33;17.37;;;;;;;;;;4998410;28;20037;-52
2023/07/28 05:19:22;;;;;;;80.27;13.27;;;;;;;;;;5001904;28;20300;-52
2023/07/28 05:21:47;;;;;;;99.05;13.57;;;;;;;;;;4998542;28;20305;-51
2023/07/28 05:24:12;;;;;;;76.90;12.33;;;;;;;;;;5002555;28;20013;-53
2023/07/28 05:26:37;;;;;;;73.70;11.07;;;;;;;;;;5001653;28;20275;-51
2023/07/28 05:29:02;;;;;;;88.13;12.50;;;;;;;;;;5001042;28;20256;-54
2023/07/28 05:31:28;;;;;;;87.03;11.53;;;;;;;;;;5002207;28;20042;-51
2023/07/28 05:33:53;;;;;;;140.55;15.73;;;;;;;;;;4999241;28;20545;-51
2023/07/28 05:36:19;;;;;;;69.82;10.80;;;;;;;;;;5001136;28;20072;-52
2023/07/28 05:38:44;;;;;;;85.78;11.48;;;;;;;;;;5000693;28;20127;-51
2023/07/28 05:41:09;;;;;;;103.20;12.17;;;;;;;;;;4998736;28;20056;-54
2023/07/28 05:43:34;;;;;;;99.73;12.17;;;;;;;;;;5001765;28;20479;-51
2023/07/28 05:46:00;;;;;;;138.73;36.53;;;;;;;;;;4999404;28;20638;-52
2023/07/28 05:48:25;;;;;;;77.30;10.82;;;;;;;;;;5000585;28;20029;-51
2023/07/28 05:50:53;;;;;;;116.07;13.38;;;;;;;;;;5000330;28;20091;-51
2023/07/28 05:53:19;;;;;;;97.97;12.55;;;;;;;;;;5005695;28;20081;-51
2023/07/28 05:55:45;;;;;;;84.97;11.82;;;;;;;;;;5002626;28;20121;-52
2023/07/28 05:58:10;;;;;;;75.60;10.88;;;;;;;;;;5004878;28;20400;-57
2023/07/28 06:00:39;;;;;;;81.37;11.23;;;;;;;;;;5005706;28;20435;-53
2023/07/28 06:03:04;;;;;;;141.73;16.20;;;;;;;;;;5003911;28;20280;-51
2023/07/28 06:05:29;;;;;;;156.37;84.00;;;;;;;;;;5005737;28;20038;-52
2023/07/28 06:07:54;;;;;;;119.40;14.13;;;;;;;;;;5004848;28;20034;-52
2023/07/28 06:10:20;;;;;;;82.20;11.70;;;;;;;;;;5002693;28;20461;-53
2023/07/28 06:12:45;;;;;;;83.23;10.23;;;;;;;;;;5004119;28;20526;-54
2023/07/28 06:15:10;;;;;;;80.10;11.50;;;;;;;;;;5002765;28;20327;-52
2023/07/28 06:17:35;;;;;;;70.73;9.80;;;;;;;;;;5005693;28;20260;-52
2023/07/28 06:20:00;;;;;;;128.52;14.68;;;;;;;;;;5004095;28;20615;-54
2023/07/28 06:22:26;;;;;;;75.40;10.40;;;;;;;;;;5004549;28;20037;-52
2023/07/28 06:24:51;;;;;;;120.10;13.93;;;;;;;;;;5004776;28;20353;-53
2023/07/28 06:27:16;;;;;;;62.20;9.82;;;;;;;;;;5008697;28;20464;-52
2023/07/28 06:29:41;;;;;;;73.87;10.97;;;;;;;;;;5005776;28;20592;-52
2023/07/28 06:32:07;;;;;;;101.87;12.50;;;;;;;;;;5008840;28;21874;-51
2023/07/28 06:34:32;;;;;;;55.17;10.13;;;;;;;;;;5006825;28;20288;-52
2023/07/28 06:36:57;;;;;;;122.68;14.18;;;;;;;;;;5004921;28;20509;-51
2023/07/28 06:39:24;;;;;;;81.90;10.90;;;;;;;;;;5005338;28;20029;-52
2023/07/28 06:41:49;;;;;;;75.93;10.43;;;;;;;;;;5006421;28;20292;-51
2023/07/28 06:44:14;;;;;;;79.05;21.83;;;;;;;;;;5004372;28;20187;-52
2023/07/28 06:46:39;;;;;;;88.33;11.23;;;;;;;;;;5005259;28;20264;-51
2023/07/28 06:49:05;;;;;;;106.10;12.50;;;;;;;;;;5003967;28;20367;-51
2023/07/28 06:51:30;;;;;;;75.20;10.50;;;;;;;;;;5005303;28;20268;-52
2023/07/28 06:53:56;;;;;;;148.07;25.10;;;;;;;;;;5003416;28;20137;-51
2023/07/28 06:56:21;;;;;;;169.65;142.63;;;;;;;;;;5012986;28;20277;-53
2023/07/28 06:58:46;;;;;;;106.03;36.07;;;;;;;;;;5007409;28;20553;-51
2023/07/28 07:01:12;;;;;;;84.17;10.80;;;;;;;;;;5002900;28;20734;-53
2023/07/28 07:03:37;;;;;;;67.77;9.10;;;;;;;;;;5002928;28;20384;-52
2023/07/28 07:06:02;;;;;;;116.07;16.25;;;;;;;;;;5002277;28;20268;-52
2023/07/28 07:08:28;;;;;;;104.63;28.05;;;;;;;;;;5005171;28;20451;-52
2023/07/28 07:10:53;;;;;;;140.82;69.55;;;;;;;;;;5002028;28;20052;-52
2023/07/28 07:13:18;;;;;;;128.98;57.58;;;;;;;;;;5005107;28;20057;-52
2023/07/28 07:15:44;;;;;;;70.72;13.82;;;;;;;;;;5004058;28;20563;-52
2023/07/28 07:18:09;;;;;;;106.10;18.02;;;;;;;;;;5002959;28;20253;-51
2023/07/28 07:20:35;;;;;;;78.28;14.07;;;;;;;;;;5003617;28;20124;-51
2023/07/28 07:23:01;;;;;;;131.52;12.38;;;;;;;;;;5000772;28;20014;-51
2023/07/28 07:25:26;;;;;;;69.22;11.88;;;;;;;;;;5008390;28;20024;-52
2023/07/28 07:27:51;;;;;;;66.00;11.93;;;;;;;;;;5007810;28;20022;-53
2023/07/28 07:30:17;;;;;;;68.17;14.10;;;;;;;;;;5007737;28;20468;-52
2023/07/28 07:32:42;;;;;;;76.18;14.48;;;;;;;;;;5008107;28;20056;-51
2023/07/28 07:35:08;;;;;;;108.82;11.35;;;;;;;;;;5007094;28;20109;-54
2023/07/28 07:37:33;;;;;;;54.67;7.10;;;;;;;;;;5006252;28;20045;-52
2023/07/28 07:40:00;;;;;;;124.53;23.55;;;;;;;;;;5007236;28;20096;-51
2023/07/28 07:42:26;;;;;;;50.83;8.32;;;;;;;;;;5007982;28;20060;-52
2023/07/28 07:44:51;;;;;;;81.00;35.37;;;;;;;;;;5006736;28;20100;-52
2023/07/28 07:47:16;;;;;;;74.23;37.90;;;;;;;;;;5008265;28;20344;-52
2023/07/28 07:49:42;;;;;;;61.63;9.63;;;;;;;;;;5008155;28;20805;-51
2023/07/28 07:52:09;;;;;;;127.30;14.30;;;;;;;;;;5007500;28;20145;-54
2023/07/28 07:54:34;;;;;;;273.77;182.40;;;;;;;;;;5007778;28;20096;-53
2023/07/28 07:56:59;;;;;;;143.70;20.97;;;;;;;;;;5007930;28;20072;-52
2023/07/28 07:59:27;;;;;;;95.17;61.50;;;;;;;;;;5008647;28;20391;-54
2023/07/28 08:01:53;;;;;;;56.80;10.45;;;;;;;;;;5007112;28;20771;-51
2023/07/28 08:04:18;;;;;;;52.83;9.00;;;;;;;;;;5007130;28;20025;-54
2023/07/28 08:06:43;;;;;;;80.63;26.23;;;;;;;;;;5007623;28;20322;-52
2023/07/28 08:09:09;;;;;;;121.30;19.47;;;;;;;;;;5005010;28;20072;-51
2023/07/28 08:11:35;;;;;;;141.68;67.63;;;;;;;;;;5005178;28;20269;-51
2023/07/28 08:14:00;;;;;;;166.63;90.00;;;;;;;;;;5005096;28;20013;-52
2023/07/28 08:16:25;;;;;;;51.17;8.47;;;;;;;;;;5005657;28;20081;-52
2023/07/28 08:18:50;;;;;;;160.90;115.57;;;;;;;;;;5005024;28;20334;-52
2023/07/28 08:21:16;;;;;;;63.70;26.90;;;;;;;;;;5005192;28;20308;-51
2023/07/28 08:23:41;;;;;;;99.20;36.13;;;;;;;;;;5006053;28;20021;-52
2023/07/28 08:26:06;;;;;;;108.00;12.57;;;;;;;;;;5006556;28;20120;-52
2023/07/28 08:28:32;;;;;;;186.90;155.50;;;;;;;;;;5008137;28;20327;-52
2023/07/28 08:30:58;;;;;;;139.02;102.32;;;;;;;;;;5005321;28;20022;-52
2023/07/28 08:33:24;;;;;;;118.18;64.50;;;;;;;;;;5013915;28;20506;-54
2023/07/28 08:35:49;;;;;;;81.57;25.27;;;;;;;;;;5005916;28;20038;-53
2023/07/28 08:38:14;;;;;;;70.53;17.03;;;;;;;;;;5007225;28;21332;-52
2023/07/28 08:40:40;;;;;;;194.27;171.20;;;;;;;;;;5008012;28;20408;-54
2023/07/28 08:43:05;;;;;;;136.70;28.70;;;;;;;;;;5006409;28;20025;-51
2023/07/28 08:45:30;;;;;;;147.90;126.00;;;;;;;;;;5005537;28;20554;-52
2023/07/28 08:47:56;;;;;;;135.65;95.30;;;;;;;;;;5007583;28;20441;-51
2023/07/28 08:50:21;;;;;;;114.00;50.63;;;;;;;;;;5006541;28;20494;-52
2023/07/28 08:52:47;;;;;;;150.63;118.65;;;;;;;;;;5008952;28;20522;-52
2023/07/28 08:55:13;;;;;;;177.65;110.05;;;;;;;;;;5006091;28;20064;-53
2023/07/28 08:57:38;;;;;;;68.75;26.67;;;;;;;;;;5007134;28;20022;-52
2023/07/28 09:00:09;;;;;;;92.63;10.85;;;;;;;;;;5006498;28;20475;-52
2023/07/28 09:02:34;;;;;;;218.38;196.88;;;;;;;;;;4985750;28;20400;-52
2023/07/28 09:05:02;;;;;;;294.13;134.93;;;;;;;;;;4985866;28;20480;-52
2023/07/28 09:07:33;;;;;;;173.82;106.70;;;;;;;;;;5007594;28;20257;-53
2023/07/28 09:10:00;;;;;;;176.57;154.43;;;;;;;;;;5006247;28;20021;-51
2023/07/28 09:12:25;;;;;;;178.48;102.40;;;;;;;;;;5005951;28;20052;-53
2023/07/28 09:14:55;;;;;;;215.40;183.80;;;;;;;;;;5006501;28;20055;-52
2023/07/28 09:17:20;;;;;;;156.90;135.43;;;;;;;;;;5006071;28;20512;-51
2023/07/28 09:19:50;;;;;;;205.97;166.13;;;;;;;;;;5008526;28;20112;-52
2023/07/28 09:22:15;;;;;;;281.92;211.02;;;;;;;;;;5004512;28;20747;-52
2023/07/28 09:24:41;;;;;;;78.88;32.38;;;;;;;;;;5005836;28;20053;-52
2023/07/28 09:27:06;;;;;;;205.60;139.63;;;;;;;;;;5002456;28;20022;-53
2023/07/28 09:29:31;;;;;;;98.40;43.47;;;;;;;;;;5006683;28;20766;-52
2023/07/28 09:32:05;;;;;;;130.57;89.32;;;;;;;;;;5003329;28;20034;-52
2023/07/28 09:34:32;;;;;;;207.13;185.63;;;;;;;;;;5006641;28;20457;-52
2023/07/28 09:36:58;;;;;;;207.30;154.05;;;;;;;;;;5005844;28;20518;-52
2023/07/28 09:39:23;;;;;;;159.18;116.90;;;;;;;;;;5004218;28;20021;-52
2023/07/28 09:41:49;;;;;;;165.95;122.70;;;;;;;;;;5005470;28;20109;-52
2023/07/28 09:44:15;;;;;;;264.17;196.63;;;;;;;;;;5003925;28;20091;-54
2023/07/28 09:46:59;;;;;;;162.65;110.57;;;;;;;;;;5003440;28;20427;-53
2023/07/28 09:49:27;;;;;;;226.98;202.20;;;;;;;;;;5005105;28;20488;-52
2023/07/28 09:51:53;;;;;;;228.52;151.13;;;;;;;;;;5005680;28;20069;-53
2023/07/28 09:54:27;;;;;;;276.30;200.68;;;;;;;;;;5004686;28;20045;-52
2023/07/28 09:56:56;;;;;;;157.70;129.32;;;;;;;;;;5005835;28;20026;-52
2023/07/28 09:59:24;;;;;;;162.63;138.00;;;;;;;;;;5005480;28;20025;-52
2023/07/28 10:01:49;;;;;;;83.05;51.20;;;;;;;;;;5006611;28;20068;-52
2023/07/28 10:04:14;;;;;;;211.48;129.55;;;;;;;;;;5006599;28;20105;-52
2023/07/28 10:06:40;;;;;;;132.88;90.00;;;;;;;;;;5006019;28;20121;-53
2023/07/28 10:09:05;;;;;;;192.65;140.27;;;;;;;;;;5003335;28;20021;-52
2023/07/28 10:11:31;;;;;;;149.10;121.32;;;;;;;;;;5004850;28;20056;-52
2023/07/28 10:13:56;;;;;;;195.30;142.65;;;;;;;;;;5003482;28;20112;-53
2023/07/28 10:16:37;;;;;;;187.73;152.25;;;;;;;;;;5003003;28;20064;-52
2023/07/28 10:19:03;;;;;;;186.10;138.38;;;;;;;;;;5003651;28;20017;-52
2023/07/28 10:21:29;;;;;;;197.80;151.13;;;;;;;;;;5005203;28;20041;-52
2023/07/28 10:23:55;;;;;;;147.50;131.27;;;;;;;;;;5004900;28;20129;-53
2023/07/28 10:26:41;;;;;;;218.27;140.80;;;;;;;;;;5005004;28;20022;-52
2023/07/28 10:29:13;;;;;;;174.98;128.00;;;;;;;;;;5003844;28;20108;-52
2023/07/28 10:31:48;;;;;;;210.85;184.13;;;;;;;;;;5002662;28;20072;-52
2023/07/28 10:34:15;;;;;;;196.48;122.28;;;;;;;;;;5005146;28;20653;-53
2023/07/28 10:36:43;;;;;;;223.55;178.05;;;;;;;;;;5004941;28;20813;-53
2023/07/28 10:39:17;;;;;;;216.15;135.15;;;;;;;;;;5008846;28;20125;-52
2023/07/28 10:42:00;;;;;;;167.13;126.93;;;;;;;;;;5010519;28;20041;-52
2023/07/28 10:44:26;;;;;;;183.80;138.48;;;;;;;;;;5007230;28;20029;-52
2023/07/28 10:46:52;;;;;;;230.82;206.00;;;;;;;;;;5009249;28;20030;-52
2023/07/28 10:49:17;;;;;;;204.10;118.68;;;;;;;;;;5009121;28;20014;-53
2023/07/28 10:51:42;;;;;;;244.50;219.25;;;;;;;;;;5008370;28;20042;-53
2023/07/28 10:54:07;;;;;;;98.20;12.50;;;;;;;;;;5008430;28;20021;-55
2023/07/28 10:56:33;;;;;;;159.32;95.32;;;;;;;;;;5007389;28;20857;-55
2023/07/28 10:58:58;;;;;;;171.03;152.50;;;;;;;;;;5011561;28;20025;-56
2023/07/28 11:01:34;;;;;;;203.00;136.20;;;;;;;;;;5008098;28;21661;-53
2023/07/28 11:04:16;;;;;;;172.63;153.65;;;;;;;;;;5008178;28;20013;-54
2023/07/28 11:06:42;;;;;;;;;;;;;;;;;;5008166;28;20034;-53
2023/07/28 11:09:08;;;;;;;111.35;65.22;;;;;;;;;;5007838;28;20055;-55
2023/07/28 11:11:34;;;;;;;195.55;146.38;;;;;;;;;;5009243;28;20064;-53
2023/07/28 11:13:59;;;;;;;131.52;104.55;;;;;;;;;;5007149;28;20083;-55
2023/07/28 11:16:25;;;;;;;137.60;98.47;;;;;;;;;;5006827;28;20033;-54
2023/07/28 11:18:50;;;;;;;163.07;133.48;;;;;;;;;;5007570;28;20277;-52
2023/07/28 11:21:21;;;;;;;225.45;156.38;;;;;;;;;;5006433;28;20025;-51
2023/07/28 11:23:47;;;;;;;184.40;144.77;;;;;;;;;;5006744;28;20023;-51
2023/07/28 11:26:13;;;;;;;183.63;123.20;;;;;;;;;;5007443;28;20307;-53
2023/07/28 11:28:38;;;;;;;126.13;78.63;;;;;;;;;;5007565;28;20416;-53
2023/07/28 11:31:04;;;;;;;190.35;147.10;;;;;;;;;;5007965;28;20049;-51
2023/07/28 11:33:29;;;;;;;128.47;104.30;;;;;;;;;;5005944;28;20021;-51
2023/07/28 11:35:54;;;;;;;193.10;157.33;;;;;;;;;;5006931;28;20260;-53
2023/07/28 11:38:20;;;;;;;136.02;80.43;;;;;;;;;;5007804;28;20299;-51
2023/07/28 11:40:45;;;;;;;157.43;98.28;;;;;;;;;;5006574;28;20034;-51
2023/07/28 11:43:10;;;;;;;212.70;133.30;;;;;;;;;;5006010;28;20040;-51
2023/07/28 11:45:36;;;;;;;232.18;174.68;;;;;;;;;;5007991;28;20177;-51
2023/07/28 11:48:08;;;;;;;171.03;136.40;;;;;;;;;;5007743;28;20014;-50
2023/07/28 11:50:37;;;;;;;172.35;144.02;;;;;;;;;;5006120;28;20040;-51
2023/07/28 11:53:03;;;;;;;158.15;140.95;;;;;;;;;;5007501;28;20387;-51
2023/07/28 11:55:29;;;;;;;139.13;111.70;;;;;;;;;;5004851;28;20064;-51
2023/07/28 11:57:54;;;;;;;140.35;98.70;;;;;;;;;;5007160;28;20025;-51
2023/07/28 12:00:30;;;;;;;253.68;167.02;;;;;;;;;;5004453;28;20041;-52
2023/07/28 12:03:05;;;;;;;150.73;118.00;;;;;;;;;;5006972;28;20028;-51
2023/07/28 12:05:33;;;;;;;146.95;131.98;;;;;;;;;;5006099;28;20166;-51
2023/07/28 12:07:58;;;;;;;226.02;184.98;;;;;;;;;;5006597;28;20104;-51
2023/07/28 12:10:24;;;;;;;232.50;206.77;;;;;;;;;;5006919;28;20046;-52
2023/07/28 12:12:49;;;;;;;254.20;182.60;;;;;;;;;;5006846;28;20033;-55
2023/07/28 12:15:18;;;;;;;169.05;75.13;;;;;;;;;;5006553;28;20147;-53
2023/07/28 12:17:59;;;;;;;220.40;196.27;;;;;;;;;;5006455;28;20017;-52
2023/07/28 12:20:24;;;;;;;220.43;154.10;;;;;;;;;;5007155;28;20041;-54
2023/07/28 12:22:49;;;;;;;146.80;123.03;;;;;;;;;;5007150;28;20045;-53
2023/07/28 12:25:15;;;;;;;276.60;176.73;;;;;;;;;;5005608;28;20358;-54
2023/07/28 12:27:40;;;;;;;150.03;110.37;;;;;;;;;;5008123;28;20025;-52
2023/07/28 12:30:08;;;;;;;254.37;173.90;;;;;;;;;;5008928;28;20031;-52
2023/07/28 12:32:34;;;;;;;174.07;155.73;;;;;;;;;;5007364;28;20022;-52
2023/07/28 12:34:59;;;;;;;186.30;124.93;;;;;;;;;;5007487;28;20040;-52
2023/07/28 12:37:24;;;;;;;317.40;156.07;;;;;;;;;;5006690;28;20121;-52
2023/07/28 12:39:49;;;;;;;146.97;57.13;;;;;;;;;;5008979;28;20026;-52
2023/07/28 12:42:15;;;;;;;316.63;147.30;;;;;;;;;;5005924;28;20292;-52
2023/07/28 12:44:41;;;;;;;195.65;105.63;;;;;;;;;;5006970;28;20273;-52
2023/07/28 12:47:07;;;;;;;250.98;152.50;;;;;;;;;;5007492;28;20030;-52
2023/07/28 12:49:34;;;;;;;151.00;134.88;;;;;;;;;;5005195;28;20024;-52
2023/07/28 12:52:00;;;;;;;217.63;171.98;;;;;;;;;;5006612;28;20041;-53
2023/07/28 12:54:25;;;;;;;224.35;150.23;;;;;;;;;;5005387;28;20637;-53
2023/07/28 12:56:51;;;;;;;293.73;224.48;;;;;;;;;;5008572;28;20117;-52
2023/07/28 12:59:16;;;;;;;230.10;165.63;;;;;;;;;;5006568;28;20056;-54
2023/07/28 13:01:42;;;;;;;207.10;73.30;;;;;;;;;;5005264;28;20113;-54
2023/07/28 13:04:07;;;;;;;193.20;163.68;;;;;;;;;;5004825;28;20029;-54
2023/07/28 13:06:32;;;;;;;337.13;134.13;;;;;;;;;;5003054;28;20212;-52
2023/07/28 13:08:57;;;;;;;162.55;143.63;;;;;;;;;;5005116;28;20035;-54
2023/07/28 13:11:23;;;;;;;256.48;176.73;;;;;;;;;;5004883;28;20681;-51
2023/07/28 13:13:48;;;;;;;230.80;133.17;;;;;;;;;;5006953;28;20488;-54
2023/07/28 13:16:13;;;;;;;180.05;120.75;;;;;;;;;;5006437;28;20475;-51
2023/07/28 13:18:39;;;;;;;168.10;134.32;;;;;;;;;;5006220;28;20017;-52
2023/07/28 13:21:06;;;;;;;148.35;94.07;;;;;;;;;;5005956;28;20037;-52
2023/07/28 13:23:31;;;;;;;269.75;175.88;;;;;;;;;;5005080;28;20026;-53
2023/07/28 13:25:56;;;;;;;188.68;168.25;;;;;;;;;;5003918;28;20044;-52
2023/07/28 13:28:22;;;;;;;179.37;111.57;;;;;;;;;;5003167;28;20229;-52
2023/07/28 13:30:47;;;;;;;246.10;160.82;;;;;;;;;;5006963;28;20037;-52
2023/07/28 13:33:12;;;;;;;254.67;185.33;;;;;;;;;;5005672;28;20086;-52
2023/07/28 13:35:37;;;;;;;149.77;62.37;;;;;;;;;;5003374;28;20125;-52
2023/07/28 13:38:03;;;;;;;175.60;115.87;;;;;;;;;;5006108;28;20483;-52
2023/07/28 13:40:28;;;;;;;170.47;88.47;;;;;;;;;;5003049;28;20069;-51
2023/07/28 13:42:54;;;;;;;297.80;159.40;;;;;;;;;;5005933;28;20172;-52
2023/07/28 13:45:19;;;;;;;202.43;138.27;;;;;;;;;;5004237;28;20643;-53
2023/07/28 13:47:44;;;;;;;223.20;177.15;;;;;;;;;;5007991;28;20029;-52
2023/07/28 13:50:09;;;;;;;156.50;137.80;;;;;;;;;;5005863;28;20488;-53
2023/07/28 13:52:35;;;;;;;146.50;119.00;;;;;;;;;;5003125;28;20280;-52
2023/07/28 13:55:01;;;;;;;246.00;180.27;;;;;;;;;;5005246;28;20025;-52
2023/07/28 13:57:26;;;;;;;212.85;159.13;;;;;;;;;;5003754;28;20269;-52
2023/07/28 13:59:51;;;;;;;176.77;141.40;;;;;;;;;;5004508;28;20092;-52
2023/07/28 14:02:17;;;;;;;276.40;223.17;;;;;;;;;;5003325;28;20821;-51